Time;durP1;ratioP1;P1;durP2;ratioP2;P2;SDS_P1;SDS_P2;PMS_P1;PMS_P2;Temp;Humidity;BMP_temperature;BMP_pressure;BME280_temperature;BME280_humidity;BME280_pressure;Samples;Min_cycle;Max_cycle;Signal;HPM_P1;HPM_P2
2023/02/28 00:00:09;;;;;;;5.65;3.38;;;;;;;0.32;68.15;98748.88;4179394;28;20275;-81
2023/02/28 00:02:13;;;;;;;3.55;3.08;;;;;;;0.31;67.80;98756.59;4199436;28;20259;-80
2023/02/28 00:04:16;;;;;;;5.47;2.90;;;;;;;0.29;68.41;98753.22;4179932;28;20198;-80
2023/02/28 00:06:20;;;;;;;5.80;3.63;;;;;;;0.29;68.98;98746.38;4196746;28;20222;-81
2023/02/28 00:08:25;;;;;;;5.18;3.60;;;;;;;0.32;68.81;98754.03;4184686;28;20236;-83
2023/02/28 00:10:30;;;;;;;4.53;3.60;;;;;;;0.16;69.25;98737.19;4180847;28;20590;-83
2023/02/28 00:12:34;;;;;;;4.75;3.15;;;;;;;0.19;69.51;98749.97;4194097;28;20201;-83
2023/02/28 00:14:37;;;;;;;4.80;3.45;;;;;;;0.26;69.50;98748.16;4197770;28;20213;-83
2023/02/28 00:16:40;;;;;;;4.85;3.50;;;;;;;0.23;69.09;98746.47;4194658;28;20610;-83
2023/02/28 00:18:43;;;;;;;4.93;3.85;;;;;;;0.20;69.33;98745.69;4197630;28;20204;-83
2023/02/28 00:20:46;;;;;;;4.95;3.65;;;;;;;0.27;69.98;98752.41;4197662;28;20238;-82
2023/02/28 00:22:51;;;;;;;5.45;3.65;;;;;;;0.30;69.82;98750.66;4195342;28;20204;-83
2023/02/28 00:24:55;;;;;;;6.10;3.90;;;;;;;0.22;70.01;98752.47;4199364;28;20197;-83
2023/02/28 00:26:58;;;;;;;4.82;3.60;;;;;;;0.26;70.31;98753.28;4190909;28;20205;-82
2023/02/28 00:29:02;;;;;;;4.80;4.30;;;;;;;0.17;70.11;98748.31;4197219;28;20242;-81
2023/02/28 00:31:06;;;;;;;4.57;3.45;;;;;;;0.20;70.26;98748.25;4200368;28;20278;-81
2023/02/28 00:33:11;;;;;;;5.93;3.97;;;;;;;0.22;70.42;98756.75;4199434;28;20204;-81
2023/02/28 00:35:14;;;;;;;6.25;4.32;;;;;;;0.24;70.68;98745.63;4202109;28;20276;-80
2023/02/28 00:37:17;;;;;;;4.47;3.67;;;;;;;0.28;70.40;98751.53;4194661;28;20220;-80
2023/02/28 00:39:20;;;;;;;6.70;3.92;;;;;;;0.18;71.14;98745.72;4199045;28;20298;-82
2023/02/28 00:41:26;;;;;;;5.20;3.65;;;;;;;0.22;70.85;98746.50;4190808;28;20213;-83
2023/02/28 00:43:29;;;;;;;6.05;3.80;;;;;;;0.20;71.58;98748.25;4199501;28;20220;-80
2023/02/28 00:45:32;;;;;;;5.60;4.00;;;;;;;0.12;71.74;98750.97;4185258;28;20288;-81
2023/02/28 00:47:36;;;;;;;4.57;4.10;;;;;;;0.13;72.12;98747.50;4193500;28;20241;-81
2023/02/28 00:49:39;;;;;;;5.43;4.32;;;;;;;0.11;72.02;98750.97;4196220;28;20670;-81
2023/02/28 00:51:44;;;;;;;4.88;3.90;;;;;;;0.08;72.22;98744.19;4195534;28;20668;-83
2023/02/28 00:53:48;;;;;;;5.15;3.80;;;;;;;0.08;72.03;98743.34;4180409;28;20267;-81
2023/02/28 00:55:52;;;;;;;7.32;4.50;;;;;;;0.06;72.48;98740.81;4179580;28;21116;-81
2023/02/28 00:57:57;;;;;;;5.15;4.15;;;;;;;0.03;72.89;98740.00;4201118;28;20228;-80
2023/02/28 01:00:01;;;;;;;5.40;4.15;;;;;;;0.01;72.60;98741.75;4183992;28;20197;-81
2023/02/28 01:02:04;;;;;;;7.68;4.10;;;;;;;0.07;73.01;98749.34;4179825;28;20199;-82
2023/02/28 01:04:07;;;;;;;5.07;3.80;;;;;;;0.03;73.07;98750.25;4200078;28;20331;-81
2023/02/28 01:06:11;;;;;;;5.63;4.20;;;;;;;-0.01;73.14;98744.34;4200026;28;20278;-81
2023/02/28 01:08:15;;;;;;;7.93;4.68;;;;;;;0.00;73.28;98737.50;4192694;28;20231;-81
2023/02/28 01:10:18;;;;;;;5.72;4.10;;;;;;;-0.09;73.31;98742.78;4185641;28;20229;-81
2023/02/28 01:12:21;;;;;;;5.05;4.13;;;;;;;-0.13;73.78;98737.75;4182182;28;20666;-81
2023/02/28 01:14:26;;;;;;;7.30;4.78;;;;;;;-0.07;73.76;98735.06;4198391;28;20211;-81
2023/02/28 01:16:29;;;;;;;6.70;4.55;;;;;;;-0.01;73.56;98732.41;4194058;28;20270;-83
2023/02/28 01:18:32;;;;;;;7.53;4.60;;;;;;;0.01;73.44;98736.63;4193910;28;20213;-81
2023/02/28 01:20:37;;;;;;;6.90;4.80;;;;;;;-0.02;73.35;98734.09;4185673;28;20259;-81
2023/02/28 01:22:40;;;;;;;6.03;4.20;;;;;;;0.00;73.30;98735.78;4197147;28;20201;-83
2023/02/28 01:24:43;;;;;;;5.55;4.28;;;;;;;-0.07;73.59;98732.50;4192452;28;20244;-81
2023/02/28 01:26:48;;;;;;;5.70;4.15;;;;;;;-0.04;73.92;98733.31;4196442;28;20962;-83
2023/02/28 01:28:52;;;;;;;7.90;4.43;;;;;;;-0.02;73.67;98735.84;4187397;28;20227;-81
2023/02/28 01:30:56;;;;;;;8.32;4.72;;;;;;;-0.08;74.03;98733.38;4202515;28;20217;-81
2023/02/28 01:33:02;;;;;;;8.93;5.35;;;;;;;-0.12;73.96;98729.16;4196729;28;20201;-81
2023/02/28 01:35:06;;;;;;;6.47;4.32;;;;;;;-0.13;74.02;98727.50;4187889;28;20212;-81
2023/02/28 01:37:09;;;;;;;4.95;4.25;;;;;;;-0.14;74.42;98731.75;4196548;28;20209;-81
2023/02/28 01:39:13;;;;;;;5.32;4.10;;;;;;;-0.17;74.62;98726.66;4182022;28;20204;-81
2023/02/28 01:41:18;;;;;;;5.10;4.18;;;;;;;-0.07;74.31;98727.38;4193415;28;20212;-81
2023/02/28 01:43:24;;;;;;;6.40;4.50;;;;;;;-0.07;74.50;98727.38;4183907;28;20585;-81
2023/02/28 01:45:28;;;;;;;5.03;4.45;;;;;;;-0.13;74.57;98730.88;4199111;28;20345;-81
2023/02/28 01:47:34;;;;;;;8.75;4.25;;;;;;;-0.19;74.97;98722.47;4177266;28;20280;-81
2023/02/28 01:49:38;;;;;;;7.63;4.97;;;;;;;-0.16;74.97;98724.97;4184295;28;20303;-81
2023/02/28 01:51:50;;;;;;;9.30;4.65;;;;;;;-0.12;75.16;98726.59;4200927;28;20210;-81
2023/02/28 01:53:56;;;;;;;7.55;5.10;;;;;;;-0.16;75.06;98724.97;4189867;28;20228;-81
2023/02/28 01:55:59;;;;;;;8.43;4.88;;;;;;;-0.11;75.29;98728.31;4195777;28;21602;-80
2023/02/28 01:58:05;;;;;;;7.95;4.65;;;;;;;-0.17;75.35;98726.66;4196935;28;20234;-80
2023/02/28 02:00:13;;;;;;;6.10;4.13;;;;;;;-0.16;75.33;98719.84;4196302;28;20202;-81
2023/02/28 02:02:19;;;;;;;5.53;4.40;;;;;;;-0.25;75.80;98727.69;4199860;28;20232;-81
2023/02/28 02:04:24;;;;;;;5.85;4.32;;;;;;;-0.17;75.56;98723.28;4189746;28;20288;-81
2023/02/28 02:06:31;;;;;;;5.40;4.30;;;;;;;-0.19;75.84;98715.63;4192669;28;20267;-81
2023/02/28 02:08:34;;;;;;;6.80;4.72;;;;;;;-0.17;76.01;98719.00;4179483;28;20316;-81
2023/02/28 02:10:41;;;;;;;5.80;4.75;;;;;;;-0.17;75.92;98713.88;4200812;28;20205;-81
2023/02/28 02:12:57;;;;;;;5.93;4.78;;;;;;;-0.15;75.75;98714.72;4199363;28;20209;-81
2023/02/28 02:15:05;;;;;;;6.55;4.90;;;;;;;-0.10;75.85;98718.03;4184351;28;20217;-81
2023/02/28 02:17:20;;;;;;;7.63;5.15;;;;;;;-0.07;75.94;98717.97;4184616;28;21863;-81
2023/02/28 02:20:07;;;;;;;6.53;5.43;;;;;;;-0.13;76.27;98715.50;4195214;28;20220;-81
2023/02/28 02:22:29;;;;;;;4.97;4.32;;;;;;;-0.15;76.55;98706.16;4138536;28;20763;-81
2023/02/28 02:24:53;;;;;;;5.68;5.00;;;;;;;-0.15;76.80;98712.13;4184364;28;20201;-83
2023/02/28 02:27:21;;;;;;;6.38;4.90;;;;;;;-0.18;76.38;98706.19;4203201;28;20246;-81
2023/02/28 02:30:05;;;;;;;6.65;5.13;;;;;;;-0.20;76.78;98710.50;4199728;28;20233;-81
2023/02/28 02:32:30;;;;;;;5.03;4.53;;;;;;;-0.13;76.70;98712.13;4170590;28;20209;-81
2023/02/28 02:34:53;;;;;;;6.75;5.00;;;;;;;-0.16;77.19;98707.03;4173200;28;20728;-81
2023/02/28 02:37:03;;;;;;;7.68;5.10;;;;;;;-0.31;77.18;98705.56;4196145;28;20209;-84
2023/02/28 02:39:14;;;;;;;7.22;4.95;;;;;;;-0.35;77.76;98696.22;4197083;28;20226;-81
2023/02/28 02:41:22;;;;;;;5.25;4.75;;;;;;;-0.35;78.03;98696.22;4198325;28;20205;-81
2023/02/28 02:43:30;;;;;;;5.75;4.65;;;;;;;-0.38;78.21;98701.41;4187292;28;20213;-81
2023/02/28 02:45:36;;;;;;;6.47;5.30;;;;;;;-0.32;78.03;98695.34;4195304;28;20636;-81
2023/02/28 02:47:40;;;;;;;5.88;4.72;;;;;;;-0.30;78.06;98691.91;4194818;28;20213;-81
2023/02/28 02:49:47;;;;;;;7.95;5.25;;;;;;;-0.25;77.84;98702.91;4194905;28;20581;-81
2023/02/28 02:51:51;;;;;;;6.13;5.18;;;;;;;-0.27;77.93;98699.53;4176903;28;20208;-80
2023/02/28 02:54:01;;;;;;;7.15;4.82;;;;;;;-0.26;78.17;98702.94;4200498;28;20243;-81
2023/02/28 02:56:05;;;;;;;8.80;5.32;;;;;;;-0.22;78.02;98702.84;4188375;28;20288;-81
2023/02/28 02:58:10;;;;;;;5.97;4.68;;;;;;;-0.30;78.17;98694.47;4197979;28;20212;-81
2023/02/28 03:00:15;;;;;;;6.10;4.57;;;;;;;-0.27;78.27;98704.66;4194905;28;20288;-81
2023/02/28 03:02:19;;;;;;;7.50;5.40;;;;;;;-0.27;78.23;98690.97;4198074;28;20222;-81
2023/02/28 03:04:24;;;;;;;7.00;5.25;;;;;;;-0.30;78.34;98691.91;4191532;28;20204;-81
2023/02/28 03:06:28;;;;;;;10.00;5.70;;;;;;;-0.31;78.34;98695.31;4197966;28;20217;-81
2023/02/28 03:08:36;;;;;;;6.97;4.97;;;;;;;-0.35;79.00;98685.97;4205708;28;20208;-81
2023/02/28 03:10:42;;;;;;;7.30;5.10;;;;;;;-0.35;78.56;98688.53;4198507;28;20213;-81
2023/02/28 03:12:52;;;;;;;8.65;5.10;;;;;;;-0.34;78.51;98697.09;4201818;28;20223;-81
2023/02/28 03:15:09;;;;;;;8.00;4.97;;;;;;;-0.31;78.51;98697.03;4200061;28;20214;-82
2023/02/28 03:17:27;;;;;;;6.70;4.95;;;;;;;-0.34;78.92;98691.97;4193299;28;20271;-81
2023/02/28 03:19:46;;;;;;;7.88;4.65;;;;;;;-0.31;78.83;98692.75;4194404;28;20208;-81
2023/02/28 03:22:02;;;;;;;8.05;5.20;;;;;;;-0.31;78.98;98691.91;4200660;28;20211;-82
2023/02/28 03:24:09;;;;;;;6.10;5.03;;;;;;;-0.25;78.78;98679.84;4194676;28;20225;-82
2023/02/28 03:26:17;;;;;;;6.68;5.30;;;;;;;-0.22;78.57;98692.59;4198245;28;20246;-81
2023/02/28 03:28:26;;;;;;;6.35;4.97;;;;;;;-0.23;78.71;98690.06;4181999;28;20215;-81
2023/02/28 03:30:36;;;;;;;5.93;5.22;;;;;;;-0.21;78.84;98691.75;4193869;28;20762;-83
2023/02/28 03:32:43;;;;;;;7.60;5.40;;;;;;;-0.08;78.51;98694.94;4199264;28;20196;-83
2023/02/28 03:34:50;;;;;;;8.82;5.90;;;;;;;-0.13;78.37;98694.19;4193290;28;20259;-83
2023/02/28 03:36:56;;;;;;;7.70;5.20;;;;;;;-0.23;78.66;98695.19;4189753;28;20209;-83
2023/02/28 03:39:05;;;;;;;7.57;5.43;;;;;;;-0.21;78.67;98703.69;4199225;28;20214;-83
2023/02/28 03:41:14;;;;;;;6.82;4.95;;;;;;;-0.14;78.52;98703.56;4198746;28;20211;-81
2023/02/28 03:43:21;;;;;;;8.05;4.70;;;;;;;-0.09;78.38;98698.38;4197710;28;20275;-81
2023/02/28 03:45:27;;;;;;;8.55;5.70;;;;;;;-0.06;78.47;98696.63;4192582;28;20220;-81
2023/02/28 03:47:33;;;;;;;6.00;4.85;;;;;;;-0.03;77.92;98698.25;4197430;28;20220;-81
2023/02/28 03:49:43;;;;;;;7.47;5.97;;;;;;;0.04;78.27;98709.22;4191632;28;20271;-81
2023/02/28 03:51:47;;;;;;;7.53;5.70;;;;;;;0.12;78.28;98703.94;4193436;28;20204;-81
2023/02/28 03:53:55;;;;;;;8.18;5.60;;;;;;;0.05;77.49;98697.25;4200402;28;20205;-81
2023/02/28 03:56:01;;;;;;;6.95;4.80;;;;;;;-0.03;77.73;98699.13;4178663;28;20193;-82
2023/02/28 03:58:09;;;;;;;7.85;5.18;;;;;;;0.02;77.98;98707.56;4190169;28;20248;-81
2023/02/28 04:00:16;;;;;;;7.00;5.32;;;;;;;0.06;77.70;98701.50;4189007;28;20212;-81
2023/02/28 04:02:19;;;;;;;7.43;5.60;;;;;;;0.08;77.76;98707.47;4179290;28;20202;-81
2023/02/28 04:04:23;;;;;;;6.88;5.72;;;;;;;0.11;77.89;98712.53;4199457;28;20756;-81
2023/02/28 04:06:27;;;;;;;7.55;5.43;;;;;;;0.11;77.78;98712.53;4195491;28;20254;-81
2023/02/28 04:08:30;;;;;;;7.82;5.65;;;;;;;0.02;77.64;98703.28;4196229;28;20218;-81
2023/02/28 04:10:34;;;;;;;11.00;5.90;;;;;;;0.00;77.98;98710.16;4196054;28;21343;-80
2023/02/28 04:12:37;;;;;;;5.57;4.97;;;;;;;0.07;78.02;98710.88;4196293;28;20210;-80
2023/02/28 04:14:40;;;;;;;8.02;5.55;;;;;;;0.05;78.35;98713.47;4186551;28;20263;-83
2023/02/28 04:16:44;;;;;;;7.35;5.60;;;;;;;0.02;77.91;98716.09;4193454;28;20708;-81
2023/02/28 04:18:47;;;;;;;9.27;5.78;;;;;;;0.01;78.30;98727.19;4190208;28;20296;-81
2023/02/28 04:20:50;;;;;;;7.22;5.82;;;;;;;0.01;78.41;98726.38;4192897;28;20228;-81
2023/02/28 04:22:53;;;;;;;6.43;5.50;;;;;;;0.02;78.09;98718.66;4195038;28;20200;-81
2023/02/28 04:24:57;;;;;;;8.35;6.15;;;;;;;0.07;78.38;98727.09;4190457;28;20284;-81
2023/02/28 04:27:01;;;;;;;7.82;5.72;;;;;;;0.12;77.92;98724.47;4185362;28;20255;-81
2023/02/28 04:29:07;;;;;;;9.00;6.45;;;;;;;0.16;77.56;98720.97;4184584;28;20266;-81
2023/02/28 04:31:10;;;;;;;9.70;6.72;;;;;;;0.21;78.15;98725.16;4199005;28;20239;-81
2023/02/28 04:33:13;;;;;;;9.77;6.15;;;;;;;0.22;77.94;98733.69;4194470;28;20205;-81
2023/02/28 04:35:17;;;;;;;7.22;5.47;;;;;;;0.10;78.07;98726.22;4195075;28;20657;-81
2023/02/28 04:37:20;;;;;;;7.57;5.85;;;;;;;0.19;77.82;98721.75;4194409;28;20209;-81
2023/02/28 04:39:27;;;;;;;7.95;6.35;;;;;;;0.16;77.66;98726.94;4185455;28;20610;-81
2023/02/28 04:41:30;;;;;;;8.32;6.35;;;;;;;0.15;78.13;98719.28;4190979;28;21008;-80
2023/02/28 04:43:36;;;;;;;8.48;6.00;;;;;;;0.18;78.56;98719.22;4212366;28;20209;-81
2023/02/28 04:45:39;;;;;;;9.20;5.97;;;;;;;0.23;78.35;98723.41;4198202;28;20205;-81
2023/02/28 04:47:42;;;;;;;7.38;5.57;;;;;;;0.20;78.03;98723.47;4192832;28;20216;-81
2023/02/28 04:49:45;;;;;;;7.30;5.60;;;;;;;0.17;77.82;98713.25;4195539;28;20217;-81
2023/02/28 04:51:49;;;;;;;8.48;5.90;;;;;;;0.21;78.21;98729.44;4188572;28;22217;-81
2023/02/28 04:53:53;;;;;;;8.55;6.10;;;;;;;0.22;78.31;98720.88;4194822;28;20561;-81
2023/02/28 04:55:56;;;;;;;8.07;5.95;;;;;;;0.17;77.52;98726.09;4180594;28;20206;-81
2023/02/28 04:57:59;;;;;;;9.05;6.55;;;;;;;0.19;78.41;98720.94;4200650;28;20665;-81
2023/02/28 05:00:12;;;;;;;9.52;6.40;;;;;;;0.18;78.08;98726.91;4198036;28;20224;-81
2023/02/28 05:02:15;;;;;;;10.43;6.53;;;;;;;0.11;78.30;98733.03;4191055;28;20199;-81
2023/02/28 05:04:19;;;;;;;10.05;7.47;;;;;;;-0.03;78.43;98721.31;4193840;28;20263;-81
2023/02/28 05:06:23;;;;;;;9.05;6.60;;;;;;;-0.05;78.47;98725.63;4197550;28;20229;-82
2023/02/28 05:08:29;;;;;;;8.32;6.10;;;;;;;-0.01;78.47;98720.44;4201047;28;20234;-81
2023/02/28 05:10:32;;;;;;;8.07;6.35;;;;;;;0.03;78.12;98724.63;4195935;28;20222;-81
2023/02/28 05:12:35;;;;;;;12.98;6.95;;;;;;;0.08;78.03;98733.09;4196112;28;20212;-81
2023/02/28 05:14:38;;;;;;;8.15;6.20;;;;;;;-0.01;78.04;98723.00;4195816;28;20312;-82
2023/02/28 05:16:43;;;;;;;11.98;6.88;;;;;;;-0.01;78.40;98728.97;4179373;28;20233;-81
2023/02/28 05:18:47;;;;;;;8.30;6.63;;;;;;;-0.01;78.49;98721.28;4195843;28;20211;-81
2023/02/28 05:20:50;;;;;;;9.63;6.65;;;;;;;0.03;78.10;98728.03;4193757;28;20633;-81
2023/02/28 05:22:53;;;;;;;10.10;5.85;;;;;;;0.13;78.01;98732.13;4190729;28;20685;-81
2023/02/28 05:24:56;;;;;;;9.07;6.38;;;;;;;0.01;77.94;98731.50;4179319;28;20210;-81
2023/02/28 05:26:59;;;;;;;8.98;6.22;;;;;;;-0.01;77.95;98728.97;4179578;28;20942;-81
2023/02/28 05:29:03;;;;;;;9.45;7.05;;;;;;;-0.05;78.07;98731.59;4195685;28;20216;-81
2023/02/28 05:31:06;;;;;;;9.00;6.50;;;;;;;-0.03;78.17;98735.00;4193920;28;20224;-83
2023/02/28 05:33:12;;;;;;;11.10;7.38;;;;;;;0.07;78.17;98726.25;4200290;28;20210;-83
2023/02/28 05:35:16;;;;;;;8.52;6.30;;;;;;;-0.03;77.72;98727.31;4199990;28;20224;-84
2023/02/28 05:37:19;;;;;;;9.38;6.78;;;;;;;-0.09;78.01;98729.97;4178657;28;20285;-84
2023/02/28 05:39:24;;;;;;;11.27;6.75;;;;;;;-0.01;78.08;98732.41;4196842;28;20216;-82
2023/02/28 05:41:28;;;;;;;10.68;6.70;;;;;;;0.06;77.86;98734.81;4196663;28;20242;-82
2023/02/28 05:43:31;;;;;;;9.50;6.65;;;;;;;0.08;77.74;98735.66;4201012;28;20735;-82
2023/02/28 05:45:34;;;;;;;7.90;6.32;;;;;;;0.10;78.00;98736.47;4192437;28;20233;-81
2023/02/28 05:47:38;;;;;;;9.95;6.90;;;;;;;0.10;77.92;98732.19;4184131;28;20228;-82
2023/02/28 05:49:42;;;;;;;9.63;6.55;;;;;;;0.13;77.70;98731.28;4186991;28;20945;-81
2023/02/28 05:51:45;;;;;;;8.40;6.32;;;;;;;0.19;77.69;98726.06;4193069;28;20270;-82
2023/02/28 05:53:49;;;;;;;10.13;6.00;;;;;;;0.22;77.47;98731.13;4194155;28;20300;-81
2023/02/28 05:55:54;;;;;;;13.02;8.68;;;;;;;0.27;77.44;98740.44;4194979;28;20697;-82
2023/02/28 05:57:58;;;;;;;10.38;8.18;;;;;;;0.27;77.21;98734.44;4204641;28;20201;-82
2023/02/28 06:00:01;;;;;;;11.63;8.70;;;;;;;0.35;77.43;98741.13;4185762;28;20627;-82
2023/02/28 06:02:16;;;;;;;9.95;7.07;;;;;;;0.37;77.07;98738.53;4200006;28;20201;-82
2023/02/28 06:04:21;;;;;;;10.20;7.18;;;;;;;0.26;77.08;98738.75;4192676;28;23768;-82
2023/02/28 06:06:35;;;;;;;11.95;7.65;;;;;;;0.27;77.47;98744.69;4196070;28;20228;-82
2023/02/28 06:08:39;;;;;;;11.00;7.10;;;;;;;0.23;77.28;98732.84;4180452;28;20298;-82
2023/02/28 06:10:42;;;;;;;13.70;8.57;;;;;;;0.22;77.72;98746.50;4200857;28;20300;-82
2023/02/28 06:12:46;;;;;;;12.60;7.90;;;;;;;0.24;77.50;98737.06;4198141;28;20215;-82
2023/02/28 06:14:49;;;;;;;12.88;6.90;;;;;;;0.31;77.45;98742.06;4192708;28;20219;-82
2023/02/28 06:16:52;;;;;;;11.30;6.57;;;;;;;0.23;76.78;98738.78;4192489;28;20213;-82
2023/02/28 06:18:57;;;;;;;10.40;7.50;;;;;;;0.17;77.40;98748.31;4195422;28;20270;-82
2023/02/28 06:21:00;;;;;;;8.15;6.63;;;;;;;0.13;76.97;98755.19;4193365;28;20661;-82
2023/02/28 06:23:05;;;;;;;9.32;6.65;;;;;;;0.05;77.64;98745.97;4201164;28;20216;-82
2023/02/28 06:25:09;;;;;;;10.63;6.85;;;;;;;0.12;77.83;98758.66;4198080;28;20226;-82
2023/02/28 06:27:13;;;;;;;11.13;8.20;;;;;;;0.18;77.24;98760.25;4200769;28;20416;-82
2023/02/28 06:29:16;;;;;;;8.50;6.78;;;;;;;0.14;77.65;98762.03;4189015;28;20221;-82
2023/02/28 06:31:20;;;;;;;14.27;8.15;;;;;;;0.24;77.61;98763.56;4197192;28;20225;-82
2023/02/28 06:33:23;;;;;;;11.82;8.35;;;;;;;0.23;77.41;98766.16;4197535;28;20212;-82
2023/02/28 06:35:26;;;;;;;12.02;8.25;;;;;;;0.22;77.29;98767.03;4189979;28;20364;-82
2023/02/28 06:37:31;;;;;;;21.58;10.93;;;;;;;0.24;77.53;98775.53;4191622;28;20304;-82
2023/02/28 06:39:36;;;;;;;9.57;7.40;;;;;;;0.18;77.11;98771.38;4197851;28;20205;-82
2023/02/28 06:41:39;;;;;;;10.75;7.55;;;;;;;0.23;77.28;98763.59;4191840;28;20302;-82
2023/02/28 06:43:57;;;;;;;9.95;7.60;;;;;;;0.22;77.19;98767.84;4179012;28;20201;-82
2023/02/28 06:46:01;;;;;;;10.15;7.70;;;;;;;0.20;77.33;98779.88;4175455;28;20201;-82
2023/02/28 06:48:05;;;;;;;12.95;8.00;;;;;;;0.14;77.30;98774.00;4198770;28;20445;-81
2023/02/28 06:50:11;;;;;;;11.27;7.82;;;;;;;0.12;77.71;98770.59;4194680;28;20283;-82
2023/02/28 06:52:15;;;;;;;12.57;7.30;;;;;;;0.12;77.57;98773.16;4184161;28;20260;-83
2023/02/28 06:54:18;;;;;;;15.52;8.02;;;;;;;0.17;77.74;98781.66;4192941;28;20729;-82
2023/02/28 06:56:22;;;;;;;9.57;7.47;;;;;;;0.16;77.65;98785.06;4196430;28;20211;-82
2023/02/28 06:58:25;;;;;;;10.18;7.72;;;;;;;0.13;77.67;98782.56;4192338;28;20210;-82
2023/02/28 07:00:29;;;;;;;12.38;8.32;;;;;;;0.18;77.23;98785.88;4195055;28;20299;-82
2023/02/28 07:02:32;;;;;;;13.30;8.32;;;;;;;0.18;77.45;98791.88;4190596;28;20732;-83
2023/02/28 07:04:35;;;;;;;11.85;8.32;;;;;;;0.28;77.60;98800.25;4183576;28;20210;-82
2023/02/28 07:06:39;;;;;;;11.43;7.85;;;;;;;0.30;77.24;98791.66;4195133;28;20256;-82
2023/02/28 07:08:42;;;;;;;9.70;7.85;;;;;;;0.34;77.17;98795.03;4202373;28;20211;-83
2023/02/28 07:10:45;;;;;;;11.70;8.20;;;;;;;0.30;77.12;98795.94;4185248;28;20680;-79
2023/02/28 07:12:51;;;;;;;12.07;8.02;;;;;;;0.29;77.32;98807.09;4197088;28;20684;-82
2023/02/28 07:14:55;;;;;;;9.73;7.45;;;;;;;0.23;77.05;98804.63;4191957;28;20316;-81
2023/02/28 07:16:58;;;;;;;11.65;8.38;;;;;;;0.28;77.46;98795.94;4195624;28;20544;-81
2023/02/28 07:19:01;;;;;;;11.85;7.35;;;;;;;0.41;77.30;98804.28;4194369;28;20237;-81
2023/02/28 07:21:06;;;;;;;10.68;7.43;;;;;;;0.41;76.91;98805.16;4181445;28;20212;-82
2023/02/28 07:23:09;;;;;;;10.65;8.07;;;;;;;0.45;76.96;98811.06;4195950;28;20598;-82
2023/02/28 07:25:12;;;;;;;12.80;7.55;;;;;;;0.46;76.39;98804.16;4199116;28;20909;-82
2023/02/28 07:27:23;;;;;;;12.40;8.20;;;;;;;0.39;76.66;98801.75;4203378;28;20201;-81
2023/02/28 07:29:28;;;;;;;12.15;8.50;;;;;;;0.46;76.61;98805.06;4202019;28;20209;-81
2023/02/28 07:31:31;;;;;;;12.20;9.07;;;;;;;0.45;76.92;98804.19;4194603;28;20244;-82
2023/02/28 07:33:35;;;;;;;9.88;8.23;;;;;;;0.52;76.59;98806.63;4195304;28;20209;-81
2023/02/28 07:35:38;;;;;;;12.40;7.85;;;;;;;0.52;76.33;98818.63;4199282;28;20695;-82
2023/02/28 07:37:41;;;;;;;11.40;7.97;;;;;;;0.62;76.47;98820.16;4180490;28;20252;-80
2023/02/28 07:39:44;;;;;;;10.23;7.85;;;;;;;0.59;76.10;98818.50;4187456;28;20257;-80
2023/02/28 07:41:47;;;;;;;12.65;8.85;;;;;;;0.73;76.39;98815.69;4193417;28;20704;-80
2023/02/28 07:43:50;;;;;;;11.85;7.40;;;;;;;0.86;75.98;98820.56;4190117;28;20208;-80
2023/02/28 07:45:55;;;;;;;10.77;8.05;;;;;;;0.87;75.05;98822.22;4198070;28;20196;-80
2023/02/28 07:47:58;;;;;;;11.27;8.00;;;;;;;0.99;75.97;98829.69;4196183;28;20282;-80
2023/02/28 07:50:02;;;;;;;11.15;8.60;;;;;;;0.95;75.19;98828.09;4193265;28;20241;-80
2023/02/28 07:52:06;;;;;;;10.85;8.57;;;;;;;0.96;75.14;98828.06;4194433;28;20271;-80
2023/02/28 07:54:09;;;;;;;11.48;8.45;;;;;;;0.95;75.26;98826.34;4174546;28;20216;-82
2023/02/28 07:56:12;;;;;;;10.88;8.20;;;;;;;1.03;74.94;98829.59;4191140;28;20205;-82
2023/02/28 07:58:15;;;;;;;12.77;8.18;;;;;;;1.00;75.55;98823.69;4186095;28;20208;-82
2023/02/28 08:00:19;;;;;;;9.60;7.55;;;;;;;0.99;75.27;98832.25;4203420;28;20213;-83
2023/02/28 08:02:24;;;;;;;12.57;8.15;;;;;;;0.93;75.66;98833.25;4178551;28;20281;-82
2023/02/28 08:04:27;;;;;;;12.00;9.23;;;;;;;1.10;75.50;98840.63;4197384;28;20223;-82
2023/02/28 08:06:30;;;;;;;15.13;8.30;;;;;;;1.29;75.21;98841.94;4194851;28;20696;-81
2023/02/28 08:08:34;;;;;;;11.48;8.52;;;;;;;1.27;74.51;98839.41;4187819;28;20204;-81
2023/02/28 08:10:37;;;;;;;12.43;8.52;;;;;;;1.32;74.42;98836.75;4191024;28;20287;-84
2023/02/28 08:12:40;;;;;;;13.38;9.50;;;;;;;1.39;73.65;98833.19;4193541;28;20220;-82
2023/02/28 08:14:44;;;;;;;11.85;8.57;;;;;;;1.52;73.22;98840.63;4179455;28;20218;-82
2023/02/28 08:16:47;;;;;;;12.82;9.18;;;;;;;1.61;73.73;98830.09;4192714;28;20562;-82
2023/02/28 08:18:52;;;;;;;11.57;8.80;;;;;;;1.74;72.93;98842.66;4199845;28;20212;-82
2023/02/28 08:20:56;;;;;;;12.57;8.50;;;;;;;1.89;72.90;98842.31;4175767;28;20758;-82
2023/02/28 08:22:59;;;;;;;12.50;9.40;;;;;;;2.04;72.30;98840.25;4197312;28;20718;-81
2023/02/28 08:25:02;;;;;;;14.52;9.63;;;;;;;2.20;71.98;98846.75;4193511;28;20626;-82
2023/02/28 08:27:06;;;;;;;14.18;9.85;;;;;;;2.36;71.38;98856.63;4194073;28;20239;-82
2023/02/28 08:29:09;;;;;;;13.23;8.93;;;;;;;2.44;71.11;98838.44;4198353;28;20220;-82
2023/02/28 08:31:14;;;;;;;13.90;9.32;;;;;;;2.47;70.63;98840.94;4193009;28;20209;-82
2023/02/28 08:33:17;;;;;;;12.80;8.98;;;;;;;2.60;70.11;98840.59;4189374;28;20225;-82
2023/02/28 08:35:21;;;;;;;12.88;8.88;;;;;;;2.65;69.82;98832.75;4205760;28;20196;-82
2023/02/28 08:37:25;;;;;;;11.48;8.75;;;;;;;2.43;69.79;98829.84;4195866;28;20220;-82
2023/02/28 08:39:28;;;;;;;12.20;8.85;;;;;;;2.56;69.87;98854.41;4184517;28;20214;-82
2023/02/28 08:41:31;;;;;;;11.90;9.05;;;;;;;2.72;70.02;98839.41;4198543;28;20260;-82
2023/02/28 08:43:35;;;;;;;11.75;9.23;;;;;;;3.03;69.25;98846.31;4191365;28;20339;-82
2023/02/28 08:45:38;;;;;;;12.18;9.07;;;;;;;3.15;69.15;98851.97;4200092;28;20657;-81
2023/02/28 08:47:41;;;;;;;11.70;8.90;;;;;;;3.22;68.96;98856.09;4199214;28;20209;-81
2023/02/28 08:49:44;;;;;;;13.57;9.82;;;;;;;3.29;68.42;98858.47;4194581;28;20217;-81
2023/02/28 08:51:49;;;;;;;13.30;9.15;;;;;;;3.39;67.60;98862.44;4182220;28;20225;-81
2023/02/28 08:53:52;;;;;;;13.50;10.23;;;;;;;3.56;68.39;98865.38;4197058;28;20225;-82
2023/02/28 08:55:58;;;;;;;13.38;8.70;;;;;;;3.75;68.03;98854.50;4203412;28;20636;-82
2023/02/28 08:58:02;;;;;;;11.80;9.20;;;;;;;3.82;67.86;98860.34;4200891;28;20239;-82
2023/02/28 09:00:07;;;;;;;12.35;9.80;;;;;;;3.77;66.87;98854.47;4194869;28;20213;-82
2023/02/28 09:02:13;;;;;;;14.10;8.85;;;;;;;3.75;66.43;98866.56;4201234;28;20202;-82
2023/02/28 09:04:16;;;;;;;15.20;10.20;;;;;;;3.61;66.61;98844.63;4187432;28;20835;-82
2023/02/28 09:06:24;;;;;;;11.10;9.30;;;;;;;3.74;67.51;98849.38;4201599;28;20259;-82
2023/02/28 09:08:30;;;;;;;14.55;9.45;;;;;;;3.86;67.14;98849.03;4202449;28;20204;-82
2023/02/28 09:10:34;;;;;;;12.60;9.45;;;;;;;4.15;67.27;98849.84;4196321;28;20677;-82
2023/02/28 09:12:37;;;;;;;14.55;10.02;;;;;;;4.27;66.02;98852.88;4191894;28;20740;-82
2023/02/28 09:14:40;;;;;;;12.82;9.75;;;;;;;4.29;66.19;98855.41;4199620;28;20209;-81
2023/02/28 09:16:43;;;;;;;10.77;9.30;;;;;;;4.39;65.53;98857.66;4184311;28;20213;-81
2023/02/28 09:18:47;;;;;;;13.15;9.43;;;;;;;4.35;64.84;98855.22;4201213;28;20208;-82
2023/02/28 09:20:50;;;;;;;11.45;9.20;;;;;;;4.46;64.92;98853.97;4201786;28;20226;-83
2023/02/28 09:22:53;;;;;;;12.27;9.27;;;;;;;4.56;65.43;98857.97;4185710;28;20201;-79
2023/02/28 09:24:58;;;;;;;11.10;8.90;;;;;;;4.32;64.21;98856.16;4176359;28;20284;-81
2023/02/28 09:27:01;;;;;;;13.73;9.70;;;;;;;3.99;64.86;98843.47;4196685;28;20300;-81
2023/02/28 09:29:07;;;;;;;12.43;9.60;;;;;;;3.96;64.79;98855.63;4193747;28;20251;-80
2023/02/28 09:31:15;;;;;;;12.85;9.70;;;;;;;3.78;65.79;98844.09;4176537;28;20205;-79
2023/02/28 09:33:20;;;;;;;12.30;8.65;;;;;;;3.79;65.17;98848.38;4178830;28;20680;-82
2023/02/28 09:35:26;;;;;;;13.35;9.93;;;;;;;3.54;66.00;98846.56;4201054;28;20227;-81
2023/02/28 09:37:30;;;;;;;13.73;10.63;;;;;;;3.65;65.72;98849.66;4180410;28;20743;-82
2023/02/28 09:39:34;;;;;;;13.00;9.13;;;;;;;3.64;65.33;98847.13;4191053;28;20300;-81
2023/02/28 09:41:47;;;;;;;13.90;10.65;;;;;;;3.58;65.29;98845.59;4198927;28;20231;-82
2023/02/28 09:43:53;;;;;;;12.90;9.00;;;;;;;3.74;66.00;98846.81;4193660;28;20224;-81
2023/02/28 09:46:00;;;;;;;11.55;9.45;;;;;;;3.61;65.67;98842.06;4195009;28;20205;-81
2023/02/28 09:48:09;;;;;;;13.50;9.48;;;;;;;3.78;66.24;98845.84;4190554;28;20205;-81
2023/02/28 09:50:32;;;;;;;14.32;10.40;;;;;;;3.95;65.38;98843.59;4195640;28;20300;-82
2023/02/28 09:52:35;;;;;;;11.82;9.35;;;;;;;3.92;65.22;98851.44;4187773;28;20705;-82